createdAt,value
2018-06-15T00:00:57.010Z,16.57
2018-06-15T00:03:25.799Z,16.45
2018-06-15T00:05:54.540Z,16.31
2018-06-15T00:08:23.199Z,16.38
2018-06-15T00:10:51.931Z,16.37
2018-06-15T00:13:21.006Z,16.40
2018-06-15T00:15:49.732Z,16.47
2018-06-15T00:18:18.305Z,16.52
2018-06-15T00:20:47.159Z,16.52
2018-06-15T00:23:16.163Z,16.53
2018-06-15T00:25:44.972Z,16.50
2018-06-15T00:28:13.751Z,16.57
2018-06-15T00:30:42.531Z,16.58
2018-06-15T00:33:11.163Z,16.62
2018-06-15T00:35:39.789Z,16.48
2018-06-15T00:38:08.844Z,16.39
2018-06-15T00:40:37.486Z,16.49
2018-06-15T00:43:06.551Z,16.50
2018-06-15T00:45:41.724Z,16.43
2018-06-15T00:48:10.461Z,16.49
2018-06-15T00:50:39.227Z,16.54
2018-06-15T00:53:07.999Z,16.30
2018-06-15T00:55:36.811Z,16.25
2018-06-15T00:58:05.590Z,16.33
2018-06-15T01:00:34.372Z,16.51
2018-06-15T01:03:03.163Z,16.45
2018-06-15T01:05:31.948Z,16.25
2018-06-15T01:08:00.570Z,16.46
2018-06-15T01:10:29.202Z,16.34
2018-06-15T01:12:57.959Z,16.22
2018-06-15T01:15:26.537Z,16.27
2018-06-15T01:17:55.159Z,16.30
2018-06-15T01:20:24.284Z,16.27
2018-06-15T01:22:53.327Z,16.36
2018-06-15T01:25:22.058Z,16.29
2018-06-15T01:27:50.877Z,16.24
2018-06-15T01:30:19.869Z,16.08
2018-06-15T01:32:49.019Z,16.16
2018-06-15T01:35:18.092Z,16.06
2018-06-15T01:37:46.872Z,15.95
2018-06-15T01:40:15.442Z,15.93
2018-06-15T01:42:44.247Z,16.04
2018-06-15T01:45:19.444Z,15.92
2018-06-15T01:47:48.235Z,16.01
2018-06-15T01:50:16.975Z,15.97
2018-06-15T01:52:45.743Z,15.87
2018-06-15T01:55:14.527Z,15.92
2018-06-15T01:57:43.330Z,15.91
2018-06-15T02:00:11.966Z,15.91
2018-06-15T02:02:41.205Z,15.98
2018-06-15T02:05:10.000Z,16.00
2018-06-15T02:07:38.807Z,16.00
2018-06-15T02:10:07.751Z,15.88
2018-06-15T02:12:37.064Z,15.82
2018-06-15T02:15:05.988Z,15.79
2018-06-15T02:17:34.618Z,15.76
2018-06-15T02:20:03.499Z,15.75
2018-06-15T02:22:32.267Z,15.73
2018-06-15T02:25:00.843Z,15.64
2018-06-15T02:27:29.457Z,15.53
2018-06-15T02:29:58.231Z,15.45
2018-06-15T02:32:27.432Z,15.45
2018-06-15T02:34:56.186Z,15.50
2018-06-15T02:37:25.216Z,15.36
2018-06-15T02:39:54.254Z,15.38
2018-06-15T02:42:23.003Z,15.51
2018-06-15T02:44:51.842Z,15.43
2018-06-15T02:47:20.619Z,15.27
2018-06-15T02:49:49.399Z,15.25
2018-06-15T02:52:18.134Z,15.17
2018-06-15T02:54:47.507Z,15.35
2018-06-15T02:57:16.168Z,15.23
2018-06-15T02:59:44.957Z,15.17
2018-06-15T03:02:13.722Z,15.09
2018-06-15T03:04:42.517Z,14.98
2018-06-15T03:07:11.268Z,14.91
2018-06-15T03:09:40.104Z,14.84
2018-06-15T03:12:08.860Z,14.80
2018-06-15T03:14:37.861Z,14.79
2018-06-15T03:17:06.613Z,14.82
2018-06-15T03:19:35.351Z,14.84
2018-06-15T03:22:04.204Z,14.70
2018-06-15T03:24:32.991Z,14.66
2018-06-15T03:27:01.740Z,14.65
2018-06-15T03:29:30.762Z,14.63
2018-06-15T03:31:59.540Z,14.65
2018-06-15T03:34:28.618Z,14.66
2018-06-15T03:36:57.432Z,14.75
2018-06-15T03:39:26.200Z,14.77
2018-06-15T03:41:55.004Z,14.71
2018-06-15T03:44:23.753Z,14.78
2018-06-15T03:46:52.587Z,14.86
2018-06-15T03:49:21.364Z,15.08
2018-06-15T03:51:50.139Z,15.00
2018-06-15T03:54:18.870Z,15.30
2018-06-15T03:56:47.620Z,15.40
2018-06-15T03:59:16.695Z,15.94
2018-06-15T04:01:45.279Z,16.15
2018-06-15T04:04:13.914Z,15.77
2018-06-15T04:06:42.655Z,15.92
2018-06-15T04:09:11.438Z,15.95
2018-06-15T04:11:40.509Z,15.86
2018-06-15T04:14:09.284Z,15.87
2018-06-15T04:16:38.351Z,15.74
2018-06-15T04:19:07.168Z,15.58
2018-06-15T04:21:35.924Z,15.76
2018-06-15T04:24:04.762Z,15.73
2018-06-15T04:26:33.811Z,15.89
2018-06-15T04:29:02.668Z,15.82
2018-06-15T04:31:31.477Z,15.76
2018-06-15T04:34:00.340Z,15.81
2018-06-15T04:36:29.124Z,15.83
2018-06-15T04:38:57.921Z,15.95
2018-06-15T04:41:26.987Z,16.10
2018-06-15T04:43:55.782Z,16.09
2018-06-15T04:46:24.546Z,15.88
2018-06-15T04:48:53.684Z,15.69
2018-06-15T04:51:22.413Z,15.93
2018-06-15T04:53:50.981Z,15.97
2018-06-15T04:56:19.812Z,15.96
2018-06-15T04:58:48.601Z,16.07
2018-06-15T05:01:25.248Z,15.92
2018-06-15T05:03:55.505Z,16.12
2018-06-15T05:06:30.339Z,16.00
2018-06-15T05:08:59.119Z,16.09
2018-06-15T05:11:34.399Z,16.05
2018-06-15T05:14:03.203Z,16.14
2018-06-15T05:16:31.944Z,16.24
2018-06-15T05:19:01.081Z,16.32
2018-06-15T05:21:29.906Z,16.52
2018-06-15T05:23:58.498Z,16.64
2018-06-15T05:26:27.303Z,16.55
2018-06-15T05:28:56.603Z,16.08
2018-06-15T05:31:25.695Z,16.10
2018-06-15T05:33:54.838Z,16.39
2018-06-15T05:36:23.571Z,16.45
2018-06-15T05:38:52.189Z,16.73
2018-06-15T05:41:20.944Z,16.72
2018-06-15T05:43:50.139Z,16.80
2018-06-15T05:46:18.932Z,16.74
2018-06-15T05:48:53.596Z,16.50
2018-06-15T05:51:28.540Z,16.58
2018-06-15T05:54:03.410Z,16.83
2018-06-15T05:56:32.075Z,16.73
2018-06-15T05:59:00.911Z,16.95
2018-06-15T06:01:34.851Z,17.08
2018-06-15T06:04:03.808Z,17.32
2018-06-15T06:06:32.555Z,17.40
2018-06-15T06:09:01.646Z,17.52
2018-06-15T06:11:30.388Z,17.10
2018-06-15T06:13:59.012Z,17.51
2018-06-15T06:16:27.742Z,17.31
2018-06-15T06:18:56.734Z,18.14
2018-06-15T06:21:25.591Z,17.22
2018-06-15T06:23:54.412Z,18.11
2018-06-15T06:26:23.182Z,18.70
2018-06-15T06:28:51.948Z,18.29
2018-06-15T06:31:21.143Z,17.17
2018-06-15T06:33:49.763Z,18.27
2018-06-15T06:36:18.564Z,18.97
2018-06-15T06:38:53.369Z,18.76
2018-06-15T06:41:21.998Z,18.71
2018-06-15T06:43:50.765Z,18.41
2018-06-15T06:46:25.703Z,18.33
2018-06-15T06:48:54.831Z,18.43
2018-06-15T06:51:23.654Z,18.73
2018-06-15T06:53:52.464Z,18.97
2018-06-15T06:56:21.220Z,19.01
2018-06-15T06:58:51.107Z,18.94
2018-06-15T07:01:20.016Z,19.01
2018-06-15T07:03:48.815Z,19.02
2018-06-15T07:06:17.663Z,19.29
2018-06-15T07:08:46.395Z,19.26
2018-06-15T07:11:15.220Z,19.15
2018-06-15T07:13:43.991Z,19.48
2018-06-15T07:16:12.807Z,20.22
2018-06-15T07:18:41.563Z,20.12
2018-06-15T07:21:10.347Z,19.78
2018-06-15T07:23:39.126Z,19.46
2018-06-15T07:26:08.233Z,19.28
2018-06-15T07:28:37.075Z,18.34
2018-06-15T07:31:05.887Z,19.01
2018-06-15T07:33:34.505Z,19.27
2018-06-15T07:36:03.351Z,19.75
2018-06-15T07:38:32.104Z,19.96
2018-06-15T07:41:00.951Z,20.38
2018-06-15T07:43:29.597Z,19.59
2018-06-15T07:45:58.430Z,19.91
2018-06-15T07:48:27.198Z,20.17
2018-06-15T07:50:56.041Z,21.27
2018-06-15T07:53:24.925Z,21.28
2018-06-15T07:55:53.664Z,21.26
2018-06-15T07:58:24.075Z,21.84
2018-06-15T08:00:53.148Z,22.23
2018-06-15T08:03:21.891Z,20.92
2018-06-15T08:05:50.771Z,20.33
2018-06-15T08:08:19.576Z,19.85
2018-06-15T08:10:48.431Z,21.03
2018-06-15T08:13:17.192Z,22.15
2018-06-15T08:15:46.147Z,22.47
2018-06-15T08:18:15.007Z,20.75
2018-06-15T08:20:43.946Z,21.80
2018-06-15T08:23:12.767Z,22.64
2018-06-15T08:25:41.535Z,23.09
2018-06-15T08:28:10.339Z,22.54
2018-06-15T08:30:39.148Z,22.36
2018-06-15T08:33:08.095Z,22.42
2018-06-15T08:35:36.694Z,22.77
2018-06-15T08:38:05.531Z,22.38
2018-06-15T08:40:34.353Z,23.00
2018-06-15T08:43:03.204Z,23.25
2018-06-15T08:45:38.199Z,22.77
2018-06-15T08:48:06.978Z,22.65
2018-06-15T08:50:36.503Z,23.16
2018-06-15T08:53:05.453Z,24.04
2018-06-15T08:55:34.259Z,24.23
2018-06-15T08:58:02.926Z,24.17
2018-06-15T09:00:31.692Z,24.28
2018-06-15T09:03:00.578Z,23.91
2018-06-15T09:05:29.750Z,24.26
2018-06-15T09:07:58.496Z,24.14
2018-06-15T09:10:27.308Z,24.55
2018-06-15T09:12:56.068Z,24.59
2018-06-15T09:15:24.896Z,24.59
2018-06-15T09:17:54.057Z,24.57
2018-06-15T09:20:22.831Z,23.87
2018-06-15T09:22:51.634Z,23.72
2018-06-15T09:25:20.475Z,24.29
2018-06-15T09:27:49.458Z,24.51
2018-06-15T09:30:18.288Z,25.21
2018-06-15T09:32:47.123Z,25.14
2018-06-15T09:35:16.201Z,24.89
2018-06-15T09:37:45.074Z,25.31
2018-06-15T09:40:13.879Z,24.69
2018-06-15T09:42:42.676Z,25.37
2018-06-15T09:45:17.362Z,25.35
2018-06-15T09:47:46.136Z,24.71
2018-06-15T09:50:14.932Z,24.33
2018-06-15T09:52:43.753Z,24.20
2018-06-15T09:55:12.553Z,24.12
2018-06-15T09:57:41.347Z,24.37
2018-06-15T10:00:10.243Z,24.26
2018-06-15T10:02:39.011Z,23.21
2018-06-15T10:05:07.789Z,23.94
2018-06-15T10:07:36.543Z,24.17
2018-06-15T10:10:05.162Z,24.48
2018-06-15T10:12:34.056Z,24.71
2018-06-15T10:15:02.877Z,23.98
2018-06-15T10:17:31.796Z,24.64
2018-06-15T10:20:00.448Z,24.60
2018-06-15T10:22:29.229Z,24.06
2018-06-15T10:24:57.976Z,23.83
2018-06-15T10:27:26.762Z,23.48
2018-06-15T10:29:55.592Z,22.96
2018-06-15T10:32:24.360Z,23.21
2018-06-15T10:34:53.267Z,23.90
2018-06-15T10:37:22.104Z,24.46
2018-06-15T10:39:50.939Z,24.67
2018-06-15T10:42:20.163Z,24.82
2018-06-15T10:44:48.977Z,24.57
2018-06-15T10:47:17.755Z,23.64
2018-06-15T10:49:46.576Z,23.78
2018-06-15T10:52:15.199Z,23.83
2018-06-15T10:54:44.099Z,23.97
2018-06-15T10:57:12.879Z,23.58
2018-06-15T10:59:41.672Z,23.83
2018-06-15T11:02:10.495Z,23.98
2018-06-15T11:04:39.259Z,24.57
2018-06-15T11:07:08.172Z,24.78
2018-06-15T11:09:36.932Z,25.25
2018-06-15T11:12:06.176Z,24.66
2018-06-15T11:14:34.949Z,24.66
2018-06-15T11:17:03.768Z,25.04
2018-06-15T11:19:32.618Z,25.14
2018-06-15T11:22:01.452Z,24.60
2018-06-15T11:24:30.264Z,24.74
2018-06-15T11:26:59.048Z,24.59
2018-06-15T11:29:27.685Z,24.44
2018-06-15T11:31:56.466Z,25.32
2018-06-15T11:34:25.270Z,25.57
2018-06-15T11:36:54.062Z,25.56
2018-06-15T11:39:23.299Z,25.49
2018-06-15T11:41:51.922Z,25.15
2018-06-15T11:44:20.744Z,24.70
2018-06-15T11:46:49.507Z,24.94
2018-06-15T11:49:18.619Z,25.15
2018-06-15T11:51:47.670Z,23.70
2018-06-15T11:54:16.476Z,24.26
2018-06-15T11:56:45.421Z,24.02
2018-06-15T11:59:14.467Z,24.49
2018-06-15T12:01:43.499Z,24.49
2018-06-15T12:04:12.351Z,24.28
2018-06-15T12:06:41.125Z,24.14
2018-06-15T12:09:10.420Z,23.86
2018-06-15T12:11:39.010Z,24.51
2018-06-15T12:14:07.796Z,25.08
2018-06-15T12:16:36.605Z,24.97
2018-06-15T12:19:05.821Z,25.16
2018-06-15T12:21:34.640Z,24.30
2018-06-15T12:24:03.408Z,24.07
2018-06-15T12:26:32.215Z,23.86
2018-06-15T12:29:00.973Z,24.04
2018-06-15T12:31:29.786Z,23.98
2018-06-15T12:33:58.895Z,23.70
2018-06-15T12:36:27.697Z,24.18
2018-06-15T12:38:56.490Z,23.88
2018-06-15T12:41:25.308Z,24.17
2018-06-15T12:43:54.056Z,24.09
2018-06-15T12:46:22.916Z,23.89
2018-06-15T12:48:51.970Z,24.49
2018-06-15T12:51:20.654Z,24.67
2018-06-15T12:53:49.383Z,24.46
2018-06-15T12:56:18.179Z,24.35
2018-06-15T12:58:46.904Z,24.81
2018-06-15T13:01:15.988Z,24.38
2018-06-15T13:03:44.800Z,25.08
2018-06-15T13:06:13.426Z,24.72
2018-06-15T13:08:42.266Z,24.67
2018-06-15T13:11:11.060Z,24.76
2018-06-15T13:13:39.867Z,24.31
2018-06-15T13:16:08.534Z,24.16
2018-06-15T13:18:37.312Z,23.99
2018-06-15T13:21:06.132Z,24.82
2018-06-15T13:23:35.313Z,24.53
2018-06-15T13:26:04.611Z,24.14
2018-06-15T13:28:33.375Z,23.37
2018-06-15T13:31:02.188Z,23.67
2018-06-15T13:33:31.215Z,24.27
2018-06-15T13:36:00.379Z,24.02
2018-06-15T13:38:29.172Z,23.61
2018-06-15T13:40:57.955Z,23.66
2018-06-15T13:43:27.352Z,24.53
2018-06-15T13:45:58.181Z,24.41
2018-06-15T13:48:27.070Z,24.66
2018-06-15T13:50:56.180Z,24.59
2018-06-15T13:53:24.954Z,23.96
2018-06-15T13:55:53.768Z,24.23
2018-06-15T13:58:22.512Z,23.92
2018-06-15T14:00:51.387Z,24.21
2018-06-15T14:03:20.187Z,24.04
2018-06-15T14:05:48.984Z,23.56
2018-06-15T14:08:17.739Z,23.88
2018-06-15T14:10:46.397Z,23.77
2018-06-15T14:13:15.207Z,24.18
2018-06-15T14:15:44.046Z,24.02
2018-06-15T14:18:12.844Z,24.19
2018-06-15T14:20:41.663Z,24.14
2018-06-15T14:23:11.012Z,24.65
2018-06-15T14:25:39.933Z,24.79
2018-06-15T14:28:08.797Z,24.04
2018-06-15T14:30:37.597Z,24.26
2018-06-15T14:33:06.425Z,24.06
2018-06-15T14:35:35.269Z,24.05
2018-06-15T14:38:04.104Z,24.10
2018-06-15T14:40:33.069Z,24.20
2018-06-15T14:43:01.655Z,24.07
2018-06-15T14:45:36.595Z,23.93
2018-06-15T14:48:05.528Z,24.53
2018-06-15T14:50:34.269Z,24.23
2018-06-15T14:53:03.074Z,24.23
2018-06-15T14:55:32.180Z,24.27
2018-06-15T14:58:01.296Z,23.84
2018-06-15T15:00:30.172Z,23.88
2018-06-15T15:02:58.944Z,24.03
2018-06-15T15:05:28.119Z,24.31
2018-06-15T15:07:57.354Z,24.31
2018-06-15T15:10:26.155Z,24.42
2018-06-15T15:12:55.900Z,24.28
2018-06-15T15:15:24.872Z,24.16
2018-06-15T15:17:53.606Z,24.18
2018-06-15T15:20:22.428Z,24.20
2018-06-15T15:22:51.240Z,23.91
2018-06-15T15:25:20.096Z,23.80
2018-06-15T15:27:48.840Z,23.42
2018-06-15T15:30:17.789Z,23.47
2018-06-15T15:32:46.540Z,23.68
2018-06-15T15:35:15.271Z,23.51
2018-06-15T15:37:44.529Z,24.04
2018-06-15T15:40:13.527Z,23.84
2018-06-15T15:42:42.267Z,23.67
2018-06-15T15:45:17.287Z,23.62
2018-06-15T15:47:45.939Z,23.60
2018-06-15T15:50:14.690Z,23.73
2018-06-15T15:52:43.760Z,23.44
2018-06-15T15:55:12.516Z,23.56
2018-06-15T15:57:41.276Z,23.70
2018-06-15T16:00:10.688Z,23.61
2018-06-15T16:02:39.304Z,23.59
2018-06-15T16:05:08.082Z,23.43
2018-06-15T16:07:37.131Z,23.65
2018-06-15T16:10:05.944Z,23.55
2018-06-15T16:12:34.763Z,23.51
2018-06-15T16:15:03.792Z,23.66
2018-06-15T16:17:32.539Z,23.24
2018-06-15T16:20:01.328Z,23.66
2018-06-15T16:22:30.268Z,23.63
2018-06-15T16:24:59.074Z,23.63
2018-06-15T16:27:27.851Z,23.23
2018-06-15T16:29:57.045Z,23.25
2018-06-15T16:32:26.166Z,23.60
2018-06-15T16:34:54.934Z,23.23
2018-06-15T16:37:23.987Z,23.04
2018-06-15T16:39:52.755Z,23.20
2018-06-15T16:42:21.524Z,23.06
2018-06-15T16:44:50.601Z,22.95
2018-06-15T16:47:19.369Z,22.89
2018-06-15T16:49:48.178Z,22.90
2018-06-15T16:52:17.280Z,22.66
2018-06-15T16:54:46.076Z,22.74
2018-06-15T16:57:14.855Z,22.58
2018-06-15T16:59:43.952Z,22.75
2018-06-15T17:02:13.008Z,22.67
2018-06-15T17:04:42.032Z,22.76
2018-06-15T17:07:11.116Z,22.74
2018-06-15T17:09:39.886Z,22.69
2018-06-15T17:12:08.791Z,22.72
2018-06-15T17:14:37.920Z,22.71
2018-06-15T17:17:06.729Z,22.74
2018-06-15T17:19:35.496Z,23.04
2018-06-15T17:22:04.901Z,22.87
2018-06-15T17:24:33.698Z,22.60
2018-06-15T17:27:02.609Z,22.96
2018-06-15T17:29:31.894Z,22.66
2018-06-15T17:32:00.700Z,23.02
2018-06-15T17:34:29.469Z,22.63
2018-06-15T17:36:58.561Z,22.81
2018-06-15T17:39:27.451Z,22.84
2018-06-15T17:41:56.524Z,22.67
2018-06-15T17:44:25.495Z,22.91
2018-06-15T17:46:54.282Z,22.50
2018-06-15T17:49:23.059Z,22.38
2018-06-15T17:51:52.207Z,22.21
2018-06-15T17:54:20.994Z,22.10
2018-06-15T17:56:49.777Z,22.10
2018-06-15T17:59:18.900Z,22.06
2018-06-15T18:01:47.682Z,22.07
2018-06-15T18:04:16.346Z,22.11
2018-06-15T18:06:45.296Z,22.15
2018-06-15T18:09:14.368Z,22.40
2018-06-15T18:11:43.124Z,22.20
2018-06-15T18:14:12.252Z,21.99
2018-06-15T18:16:40.894Z,22.08
2018-06-15T18:19:09.640Z,22.09
2018-06-15T18:21:38.734Z,22.00
2018-06-15T18:24:08.595Z,21.99
2018-06-15T18:26:37.967Z,21.86
2018-06-15T18:29:07.658Z,21.75
2018-06-15T18:33:59.131Z,21.77
2018-06-15T18:36:27.909Z,21.84
2018-06-15T18:38:56.685Z,21.76
2018-06-15T18:41:25.773Z,21.56
2018-06-15T18:43:54.870Z,21.53
2018-06-15T18:46:23.625Z,21.55
2018-06-15T18:48:52.536Z,21.60
2018-06-15T18:51:21.862Z,21.37
2018-06-15T18:53:50.702Z,21.30
2018-06-15T18:56:19.504Z,21.37
2018-06-15T18:58:48.563Z,21.20
2018-06-15T19:01:17.395Z,21.17
2018-06-15T19:03:46.179Z,21.06
2018-06-15T19:06:15.373Z,21.06
2018-06-15T19:08:44.393Z,20.98
2018-06-15T19:11:13.370Z,20.96
2018-06-15T19:13:44.728Z,20.88
2018-06-15T19:16:14.397Z,20.76
2018-06-15T19:18:43.947Z,20.76
2018-06-15T19:21:12.973Z,20.64
2018-06-15T19:23:42.081Z,20.47
2018-06-15T19:26:11.309Z,20.41
2018-06-15T19:28:40.351Z,20.28
2018-06-15T19:31:09.485Z,20.24
2018-06-15T19:33:39.024Z,20.18
2018-06-15T19:36:08.305Z,20.17
2018-06-15T19:38:37.334Z,20.04
2018-06-15T19:41:06.750Z,19.97
2018-06-15T19:43:35.898Z,19.84
2018-06-15T19:46:05.964Z,19.77
2018-06-15T19:48:35.275Z,19.75
2018-06-15T19:51:04.106Z,19.66
2018-06-15T19:53:32.985Z,19.63
2018-06-15T19:56:02.030Z,19.66
2018-06-15T19:58:30.828Z,19.62
2018-06-15T20:00:59.709Z,19.45
2018-06-15T20:03:29.241Z,19.26
2018-06-15T20:05:58.124Z,19.15
2018-06-15T20:08:27.085Z,19.04
2018-06-15T20:10:56.218Z,19.03
2018-06-15T20:13:25.302Z,18.92
2018-06-15T20:15:54.070Z,18.84
2018-06-15T20:18:23.003Z,18.80
2018-06-15T20:20:51.926Z,18.79
2018-06-15T20:23:20.533Z,18.73
2018-06-15T20:25:49.679Z,18.70
2018-06-15T20:28:18.802Z,18.65
2018-06-15T20:30:47.593Z,18.62
2018-06-15T20:33:16.762Z,18.57
2018-06-15T20:35:45.537Z,18.59
2018-06-15T20:38:14.302Z,18.57
2018-06-15T20:40:43.345Z,18.53
2018-06-15T20:43:12.127Z,18.54
2018-06-15T20:45:47.151Z,18.51
2018-06-15T20:48:15.891Z,18.44
2018-06-15T20:50:44.474Z,18.35
2018-06-15T20:53:13.638Z,18.28
2018-06-15T20:55:42.446Z,18.21
2018-06-15T20:58:11.236Z,18.14
2018-06-15T21:00:40.061Z,18.05
2018-06-15T21:03:08.832Z,18.13
2018-06-15T21:05:37.650Z,18.21
2018-06-15T21:08:06.933Z,18.18
2018-06-15T21:10:36.199Z,18.13
2018-06-15T21:13:05.070Z,18.22
2018-06-15T21:15:34.307Z,17.94
2018-06-15T21:18:03.088Z,18.06
2018-06-15T21:20:31.918Z,17.96
2018-06-15T21:23:00.860Z,17.97
2018-06-15T21:25:29.823Z,18.05
2018-06-15T21:27:58.838Z,17.98
2018-06-15T21:30:27.620Z,17.80
2018-06-15T21:32:57.100Z,17.94
2018-06-15T21:35:25.858Z,17.96
2018-06-15T21:37:55.023Z,17.94
2018-06-15T21:40:23.811Z,17.88
2018-06-15T21:42:52.583Z,17.83
2018-06-15T21:45:27.635Z,17.80
2018-06-15T21:47:56.376Z,17.76
2018-06-15T21:50:25.168Z,17.65
2018-06-15T21:52:54.312Z,17.68
2018-06-15T21:55:22.945Z,17.66
2018-06-15T21:57:51.522Z,17.61
2018-06-15T22:00:20.682Z,17.70
2018-06-15T22:02:49.436Z,17.70
2018-06-15T22:05:18.188Z,17.63
2018-06-15T22:07:47.500Z,17.46
2018-06-15T22:10:16.430Z,17.30
2018-06-15T22:12:45.188Z,17.21
2018-06-15T22:15:14.189Z,17.24
2018-06-15T22:17:42.996Z,17.32
2018-06-15T22:20:11.790Z,17.28
2018-06-15T22:22:40.874Z,17.31
2018-06-15T22:25:09.641Z,17.39
2018-06-15T22:27:38.375Z,17.31
2018-06-15T22:30:07.706Z,17.11
2018-06-15T22:32:36.797Z,17.27
2018-06-15T22:35:05.631Z,17.13
2018-06-15T22:37:34.399Z,17.24
2018-06-15T22:40:03.167Z,16.91
2018-06-15T22:42:31.899Z,16.96
2018-06-15T22:45:00.896Z,16.86
2018-06-15T22:47:29.776Z,16.77
2018-06-15T22:49:58.504Z,16.71
2018-06-15T22:52:27.618Z,16.50
2018-06-15T22:54:56.364Z,16.71
2018-06-15T22:57:25.169Z,16.84
2018-06-15T22:59:54.309Z,16.88
2018-06-15T23:02:23.364Z,16.75
2018-06-15T23:04:52.154Z,16.66
2018-06-15T23:07:21.538Z,16.75
2018-06-15T23:09:50.348Z,16.68
2018-06-15T23:12:19.123Z,16.57
2018-06-15T23:14:48.030Z,16.57
2018-06-15T23:17:16.798Z,16.61
2018-06-15T23:19:45.481Z,16.58
2018-06-15T23:22:14.638Z,16.59
2018-06-15T23:24:43.399Z,16.57
2018-06-15T23:27:12.159Z,16.60
2018-06-15T23:29:41.421Z,16.58
2018-06-15T23:32:10.163Z,16.53
2018-06-15T23:34:38.991Z,16.48
2018-06-15T23:37:07.967Z,16.49
2018-06-15T23:39:36.716Z,16.42
2018-06-15T23:42:05.700Z,16.26
2018-06-15T23:44:34.870Z,16.28
2018-06-15T23:47:03.672Z,16.40
2018-06-15T23:49:32.446Z,16.22
2018-06-15T23:52:01.547Z,16.30
2018-06-15T23:54:30.295Z,16.38
2018-06-15T23:56:59.134Z,16.27
2018-06-15T23:59:28.336Z,16.31
